• Join FlightAware (Why Join?)
  • Login
  • US Flag 
12:05AM EDT


 

Airport Tracker/Info


-or-


 

Live Flight TrackerFlight Track Log ✈ SWA3608 ✈ 14-Jul-2013 ✈ KSAN - KSJC

Flight Track Log - Related Links

Times and Time Zones

All times are in EDT time to prevent confusion due to time zone crossing. See the SWA3608 flight status page for this flight to view local times or setup timezone preferences in your user account.

Time Position Orientation Groundspeed Altitude Reporting Facility
EDT Latitude Longitude Course Direction KTS MPH feet Rate Location/Type
04:37PM 32.7500 -117.2311 305° West 185 213 1,600  Level Los Angeles Center
04:38PM 32.7864 -117.2925 305° West 218 251 4,200 2,580 Climbing Los Angeles Center
04:39PM 32.8383 -117.3894 303° West 270 311 7,600 2,940 Climbing Los Angeles Center
04:40PM 32.8819 -117.4717 302° West 290 334 10,400 2,040 Climbing Los Angeles Center
04:41PM 32.9553 -117.5336 325° Northwest 326 375 11,900 1,920 Climbing Los Angeles Center
04:42PM 33.0328 -117.6064 322° Northwest 357 411 14,400 2,220 Climbing Los Angeles Center
04:43PM 33.0956 -117.7025 308° West 365 420 16,500 1,980 Climbing Los Angeles Center
04:44PM 33.1597 -117.8028 307° West 376 433 18,600 2,160 Climbing Los Angeles Center
04:45PM 33.2422 -117.9239 309° West 389 448 21,000 1,920 Climbing Los Angeles Center
04:46PM 33.3153 -118.0244 311° West 397 457 22,600 1,440 Climbing Los Angeles Center
04:47PM 33.3881 -118.1311 309° West 409 471 24,100 1,500 Climbing Los Angeles Center
04:48PM 33.4631 -118.2397 310° West 419 482 25,700 1,260 Climbing Los Angeles Center
04:49PM 33.5403 -118.3511 310° West 427 491 26,800 1,140 Climbing Los Angeles Center
04:51PM 33.6208 -118.4689 309° West 444 511 28,100 1,080 Climbing Los Angeles Center
04:52PM 33.7028 -118.5864 310° West 450 518 29,100 960 Climbing Los Angeles Center
04:53PM 33.7858 -118.7081 309° West 463 533 30,100 1,320 Climbing Los Angeles Center
04:54PM 33.8833 -118.8497 310° West 457 526 31,900 1,200 Climbing Los Angeles Center
04:55PM 33.9469 -118.9436 309° West 451 519 32,700 1,140 Climbing Los Angeles Center
04:56PM 34.0439 -119.0839 310° West 452 520 34,300 1,200 Climbing Los Angeles Center
04:57PM 34.1214 -119.1992 309° West 444 511 35,300 780 Climbing Los Angeles Center
04:58PM 34.1986 -119.3139 309° West 441 507 36,000 300 Climbing Los Angeles Center
04:59PM 34.2772 -119.4306 309° West 445 512 36,000  Level Los Angeles Center
05:00PM 34.3719 -119.5708 309° West 448 516 36,000  Level Los Angeles Center
05:01PM 34.4494 -119.6886 309° West 449 517 36,000  Level Los Angeles Center
05:02PM 34.5369 -119.7972 314° West 449 517 36,000  Level Los Angeles Center
05:03PM 34.6575 -119.8942 327° Northwest 460 529 36,000  Level Los Angeles Center
05:04PM 34.7625 -119.9814 326° Northwest 459 528 36,000  Level Los Angeles Center
05:05PM 34.8681 -120.0686 326° Northwest 459 528 36,000  Level Los Angeles Center
05:06PM 34.9731 -120.1550 326° Northwest 465 535 36,000  Level Los Angeles Center
05:07PM 35.0786 -120.2417 326° Northwest 463 533 36,000  Level Los Angeles Center
05:08PM 35.2042 -120.3483 325° Northwest 466 536 36,000 -60 Level Los Angeles Center
05:09PM 35.3078 -120.4339 326° Northwest 466 536 35,900  Descending Los Angeles Center
05:10PM 35.4122 -120.5253 325° Northwest 471 542 36,000  Climbing Los Angeles Center
05:11PM 35.5161 -120.6139 325° Northwest 460 529 36,000  Level Los Angeles Center
05:12PM 35.6322 -120.7125 325° Northwest 452 520 36,000  Level Oakland Center
05:13PM 35.7361 -120.8000 326° Northwest 453 521 36,000  Level Oakland Center
05:14PM 35.8392 -120.8881 325° Northwest 450 518 36,000 -1,020 Level Oakland Center
05:15PM 35.9419 -120.9750 326° Northwest 449 517 34,000 -2,580 Descending Oakland Center
05:16PM 36.0458 -121.0656 325° Northwest 455 524 30,800 -3,180 Descending Oakland Center
05:17PM 36.1542 -121.1572 326° Northwest 470 541 27,600 -2,820 Descending Oakland Center
05:18PM 36.2583 -121.2469 325° Northwest 458 527 25,000 -2,760 Descending Oakland Center
05:19PM 36.3767 -121.3503 325° Northwest 434 499 22,000 -2,400 Descending Oakland Center
05:20PM 36.4700 -121.4339 324° Northwest 415 478 20,100 -2,100 Descending Oakland Center
05:21PM 36.5608 -121.5119 325° Northwest 399 459 17,700 -2,520 Descending Oakland Center
05:23PM 36.6497 -121.5931 324° Northwest 396 456 15,000 -2,580 Descending Oakland Center
05:24PM 36.7611 -121.5944 359° North 407 468 12,500 -2,520 Descending Oakland Center
05:25PM 36.8736 -121.5853 North 373 429 9,900 -1,560 Descending Oakland Center
05:26PM 36.9692 -121.5803 North 356 410 9,400 -1,080 Descending Oakland Center
05:27PM 37.0411 -121.6364 328° Northwest 313 360 7,700 -1,680 Descending Oakland Center
05:28PM 37.1153 -121.6800 335° Northwest 297 342 6,000 -1,620 Descending Oakland Center
05:29PM 37.1817 -121.7286 330° Northwest 285 328 4,400 -1,440 Descending Oakland Center
05:30PM 37.2378 -121.7881 320° Northwest 274 315 3,100 -1,080 Descending Oakland Center
05:31PM 37.2747 -121.8394 312° West 225 259 2,200 -1,020 Descending Oakland Center
05:32PM 37.3161 -121.8811 321° Northwest 180 207 1,100 -900 Descending Oakland Center
05:33PM 37.3447 -121.9122 319° Northwest 156 180 400 -720 Descending Oakland Center
05:35PM 37.3500 -121.9167 North  Level FlightAware Approximate
05:42PM 37.3627 -121.9291 North  Level Estimated